Time;durP1;ratioP1;P1;durP2;ratioP2;P2;SDS_P1;SDS_P2;PMS_P1;PMS_P2;Temp;Humidity;BMP_temperature;BMP_pressure;BME280_temperature;BME280_humidity;BME280_pressure;Samples;Min_cycle;Max_cycle;Signal;HPM_P1;HPM_P2
2022/05/24 00:00:14;;;;;;;5.80;1.90;;;;;;;;;;5016885;28;20148;-81
2022/05/24 00:02:41;;;;;;;4.25;1.95;;;;;;;;;;5010401;28;20174;-81
2022/05/24 00:05:09;;;;;;;19.05;2.70;;;;;;;;;;5026471;28;20489;-80
2022/05/24 00:07:37;;;;;;;6.47;2.30;;;;;;;;;;5025232;28;20072;-82
2022/05/24 00:10:05;;;;;;;4.38;2.30;;;;;;;;;;5027020;28;20115;-81
2022/05/24 00:12:32;;;;;;;5.47;1.95;;;;;;;;;;5026189;28;20072;-81
2022/05/24 00:17:48;;;;;;;3.95;2.55;;;;;;;;;;5036107;28;20076;-81
2022/05/24 00:20:16;;;;;;;3.75;2.10;;;;;;;;;;5015029;28;20123;-81
2022/05/24 00:22:43;;;;;;;5.63;1.95;;;;;;;;;;5011134;28;20128;-81
2022/05/24 00:25:10;;;;;;;2.75;2.00;;;;;;;;;;5028935;28;20556;-82
2022/05/24 00:27:37;;;;;;;5.70;1.98;;;;;;;;;;5013012;28;20128;-82
2022/05/24 00:30:05;;;;;;;7.93;2.28;;;;;;;;;;5030281;28;20076;-81
2022/05/24 00:32:32;;;;;;;6.35;2.35;;;;;;;;;;5027425;28;20096;-82
2022/05/24 00:35:00;;;;;;;4.53;2.15;;;;;;;;;;5030274;28;20141;-81
2022/05/24 00:37:28;;;;;;;7.65;2.33;;;;;;;;;;5028840;28;20149;-81
2022/05/24 00:39:56;;;;;;;9.57;2.10;;;;;;;;;;5043455;28;20081;-81
2022/05/24 00:42:26;;;;;;;10.32;2.40;;;;;;;;;;5020244;28;20045;-80
2022/05/24 00:45:01;;;;;;;4.22;2.70;;;;;;;;;;5003026;28;20560;-80
2022/05/24 00:47:28;;;;;;;;;;;;;;;;;;5025518;28;20045;-80
2022/05/24 00:50:04;;;;;;;4.90;1.88;;;;;;;;;;5026109;28;19959;-81
2022/05/24 00:52:34;;;;;;;5.40;2.03;;;;;;;;;;5009628;28;20045;-81
2022/05/24 00:55:05;;;;;;;3.95;1.90;;;;;;;;;;5028348;28;20087;-82
2022/05/24 00:57:37;;;;;;;3.90;2.35;;;;;;;;;;5030536;28;20140;-83
2022/05/24 01:00:07;;;;;;;5.20;2.42;;;;;;;;;;5030334;28;20099;-80
2022/05/24 01:02:36;;;;;;;2.58;2.30;;;;;;;;;;5021637;28;20069;-82
2022/05/24 01:05:09;;;;;;;6.43;2.15;;;;;;;;;;5032307;28;20042;-81
2022/05/24 01:07:39;;;;;;;4.28;2.22;;;;;;;;;;5011468;28;20080;-78
2022/05/24 01:10:06;;;;;;;8.55;2.70;;;;;;;;;;5028633;28;20068;-84
2022/05/24 01:12:37;;;;;;;3.30;2.05;;;;;;;;;;5026269;28;20045;-80
2022/05/24 01:15:05;;;;;;;5.78;2.15;;;;;;;;;;5045569;28;20033;-80
2022/05/24 01:17:34;;;;;;;3.08;2.33;;;;;;;;;;5037378;28;20094;-80
2022/05/24 01:20:01;;;;;;;4.55;2.55;;;;;;;;;;5065527;28;20045;-81
2022/05/24 01:22:52;;;;;;;5.80;2.50;;;;;;;;;;5051484;28;20076;-79
2022/05/24 01:25:44;;;;;;;8.07;2.83;;;;;;;;;;5042621;28;20049;-78
2022/05/24 01:28:21;;;;;;;7.18;2.30;;;;;;;;;;5007865;28;20050;-82
2022/05/24 01:30:53;;;;;;;5.40;2.03;;;;;;;;;;5021302;23;20050;-79
2022/05/24 01:36:11;;;;;;;7.00;2.50;;;;;;;;;;5014518;28;20050;-79
2022/05/24 01:38:40;;;;;;;5.60;2.55;;;;;;;;;;4993567;28;20081;-85
2022/05/24 01:41:09;;;;;;;6.93;2.78;;;;;;;;;;4993888;28;20160;-84
2022/05/24 01:43:38;;;;;;;45.45;7.53;;;;;;;;;;5011208;28;20141;-80
2022/05/24 01:46:07;;;;;;;5.95;2.30;;;;;;;;;;4993148;28;20081;-82
2022/05/24 01:48:43;;;;;;;10.00;2.90;;;;;;;;;;5012629;28;20422;-82
2022/05/24 01:51:12;;;;;;;8.63;2.95;;;;;;;;;;5001566;28;20144;-79
2022/05/24 01:53:42;;;;;;;8.35;3.28;;;;;;;;;;5007018;28;20656;-78
2022/05/24 01:56:32;;;;;;;7.43;2.90;;;;;;;;;;4995190;28;20530;-79
2022/05/24 01:59:01;;;;;;;6.32;2.80;;;;;;;;;;5010722;28;20045;-79
2022/05/24 02:01:39;;;;;;;9.65;3.10;;;;;;;;;;5000260;28;20197;-78
2022/05/24 02:04:07;;;;;;;8.57;2.60;;;;;;;;;;5008814;28;20077;-78
2022/05/24 02:06:34;;;;;;;12.95;2.72;;;;;;;;;;5008713;28;20050;-78
2022/05/24 02:09:02;;;;;;;6.38;3.20;;;;;;;;;;4993198;28;20049;-78
2022/05/24 02:11:31;;;;;;;8.40;2.97;;;;;;;;;;5010951;28;20085;-79
2022/05/24 02:14:22;;;;;;;5.43;2.97;;;;;;;;;;5010192;28;20698;-78
2022/05/24 02:16:52;;;;;;;8.32;3.10;;;;;;;;;;4993409;28;20104;-78
2022/05/24 02:19:20;;;;;;;6.95;3.40;;;;;;;;;;4992848;28;20063;-78
2022/05/24 02:21:51;;;;;;;9.13;3.65;;;;;;;;;;5010626;28;20073;-78
2022/05/24 02:24:24;;;;;;;6.93;3.10;;;;;;;;;;5010970;28;20042;-78
2022/05/24 02:26:52;;;;;;;7.85;3.83;;;;;;;;;;5011543;28;20554;-78
2022/05/24 02:29:21;;;;;;;6.40;3.28;;;;;;;;;;5010347;28;20089;-78
2022/05/24 02:31:50;;;;;;;7.78;3.53;;;;;;;;;;5010025;28;20069;-78
2022/05/24 02:34:18;;;;;;;11.45;3.13;;;;;;;;;;5010696;28;20064;-79
2022/05/24 02:36:45;;;;;;;11.05;3.20;;;;;;;;;;4992874;28;20135;-79
2022/05/24 02:39:12;;;;;;;9.52;4.43;;;;;;;;;;5010795;28;20077;-79
2022/05/24 02:41:40;;;;;;;7.32;3.83;;;;;;;;;;5010573;28;20159;-79
2022/05/24 02:44:09;;;;;;;9.25;3.53;;;;;;;;;;5007693;28;20046;-79
2022/05/24 02:46:37;;;;;;;9.90;3.70;;;;;;;;;;5010735;28;20128;-79
2022/05/24 02:49:04;;;;;;;14.13;4.00;;;;;;;;;;5010603;28;20421;-79
2022/05/24 02:51:31;;;;;;;10.48;3.97;;;;;;;;;;4992693;28;20115;-79
2022/05/24 02:54:00;;;;;;;9.88;4.00;;;;;;;;;;5006309;28;20054;-78
2022/05/24 02:56:28;;;;;;;15.63;3.72;;;;;;;;;;5010827;28;20137;-79
2022/05/24 02:58:55;;;;;;;9.88;3.95;;;;;;;;;;4993870;28;20089;-79
2022/05/24 03:01:24;;;;;;;9.07;3.95;;;;;;;;;;4991410;28;20073;-80
2022/05/24 03:03:52;;;;;;;16.65;4.05;;;;;;;;;;5007934;28;20148;-80
2022/05/24 03:06:20;;;;;;;7.93;3.75;;;;;;;;;;5004908;28;20135;-80
2022/05/24 03:14:22;;;;;;;12.20;3.90;;;;;;;;;;5004664;28;20137;-79
2022/05/24 03:16:52;;;;;;;15.05;5.13;;;;;;;;;;5007794;28;20146;-81
2022/05/24 03:19:20;;;;;;;10.02;4.43;;;;;;;;;;4992662;28;20050;-80
2022/05/24 03:21:47;;;;;;;12.93;4.60;;;;;;;;;;5009761;28;20128;-80
2022/05/24 03:24:15;;;;;;;9.90;4.40;;;;;;;;;;5008829;28;20104;-79
2022/05/24 03:26:42;;;;;;;12.70;4.95;;;;;;;;;;4990612;28;20529;-80
2022/05/24 03:29:09;;;;;;;12.85;4.53;;;;;;;;;;4990584;28;20509;-79
2022/05/24 03:31:36;;;;;;;13.98;4.65;;;;;;;;;;5007154;28;20144;-79
2022/05/24 03:34:04;;;;;;;8.40;4.47;;;;;;;;;;5007621;28;20049;-79
2022/05/24 03:36:31;;;;;;;15.80;5.18;;;;;;;;;;4990758;28;20652;-79
2022/05/24 03:38:58;;;;;;;9.70;4.30;;;;;;;;;;4990542;28;20058;-79
2022/05/24 03:41:25;;;;;;;7.70;4.07;;;;;;;;;;5007603;28;20046;-79
2022/05/24 03:43:53;;;;;;;13.05;4.00;;;;;;;;;;5006932;28;20076;-79
2022/05/24 03:46:20;;;;;;;8.88;4.38;;;;;;;;;;4991731;28;20165;-79
2022/05/24 03:48:47;;;;;;;12.85;4.65;;;;;;;;;;4991878;28;20042;-79
2022/05/24 03:51:14;;;;;;;13.48;4.57;;;;;;;;;;5004318;28;20466;-79
2022/05/24 03:53:42;;;;;;;9.23;4.60;;;;;;;;;;5009158;28;20683;-79
2022/05/24 03:56:09;;;;;;;24.90;5.00;;;;;;;;;;5009567;28;20494;-79
2022/05/24 03:58:37;;;;;;;20.33;4.65;;;;;;;;;;4991336;28;20483;-79
2022/05/24 04:01:04;;;;;;;10.40;4.30;;;;;;;;;;5008515;28;20081;-79
2022/05/24 04:03:32;;;;;;;8.77;4.63;;;;;;;;;;4998144;28;20057;-79
2022/05/24 04:05:59;;;;;;;12.60;4.75;;;;;;;;;;5008141;28;20153;-78
2022/05/24 04:08:27;;;;;;;18.33;4.25;;;;;;;;;;5007203;28;20112;-79
2022/05/24 04:11:08;;;;;;;9.50;4.22;;;;;;;;;;5007853;28;20054;-79
2022/05/24 04:13:36;;;;;;;10.80;3.88;;;;;;;;;;5006925;28;20085;-79
2022/05/24 04:16:04;;;;;;;11.95;4.38;;;;;;;;;;5006659;28;20240;-79
2022/05/24 04:18:31;;;;;;;22.45;4.93;;;;;;;;;;4988866;28;20046;-79
2022/05/24 04:20:58;;;;;;;10.88;4.15;;;;;;;;;;5005607;28;20137;-80
2022/05/24 04:23:26;;;;;;;16.70;4.60;;;;;;;;;;5005663;28;20115;-80
2022/05/24 04:25:54;;;;;;;12.88;4.63;;;;;;;;;;4988791;28;20050;-79
2022/05/24 04:28:22;;;;;;;8.13;4.93;;;;;;;;;;5005745;28;20487;-79
2022/05/24 04:30:50;;;;;;;12.40;5.25;;;;;;;;;;5007258;28;20153;-79
2022/05/24 04:33:18;;;;;;;13.68;4.53;;;;;;;;;;5007409;28;20116;-79
2022/05/24 04:35:45;;;;;;;8.80;5.15;;;;;;;;;;5007494;28;20089;-79
2022/05/24 04:38:12;;;;;;;17.25;5.80;;;;;;;;;;5007535;28;20141;-79
2022/05/24 04:43:25;;;;;;;10.23;5.30;;;;;;;;;;5008919;28;20111;-79
2022/05/24 04:45:53;;;;;;;12.35;5.85;;;;;;;;;;5008192;28;20088;-79
2022/05/24 04:48:21;;;;;;;11.00;6.28;;;;;;;;;;4990795;28;20061;-79
2022/05/24 04:50:55;;;;;;;11.98;6.60;;;;;;;;;;5008424;28;20084;-79
2022/05/24 04:53:23;;;;;;;14.98;6.88;;;;;;;;;;5009170;28;20549;-78
2022/05/24 04:55:51;;;;;;;20.40;7.70;;;;;;;;;;4991028;28;20081;-78
2022/05/24 04:58:18;;;;;;;10.65;7.10;;;;;;;;;;5005334;28;20132;-78
2022/05/24 05:00:46;;;;;;;16.00;8.85;;;;;;;;;;5005221;28;20532;-78
2022/05/24 05:03:14;;;;;;;20.98;9.13;;;;;;;;;;4994224;28;20046;-78
2022/05/24 05:05:42;;;;;;;14.57;9.10;;;;;;;;;;5005286;28;20088;-77
2022/05/24 05:08:09;;;;;;;17.30;9.15;;;;;;;;;;4988677;28;20134;-77
2022/05/24 05:10:37;;;;;;;15.07;9.35;;;;;;;;;;5005391;28;20782;-77
2022/05/24 05:13:04;;;;;;;21.15;10.18;;;;;;;;;;5006344;28;20081;-78
2022/05/24 05:15:34;;;;;;;15.93;9.98;;;;;;;;;;4988453;28;20081;-77
2022/05/24 05:18:06;;;;;;;18.13;10.88;;;;;;;;;;5006990;28;20828;-78
2022/05/24 05:20:38;;;;;;;19.65;10.55;;;;;;;;;;5003959;28;20057;-78
2022/05/24 05:23:10;;;;;;;16.98;10.98;;;;;;;;;;5006787;28;20058;-79
2022/05/24 05:25:38;;;;;;;16.65;10.02;;;;;;;;;;5008966;28;20088;-78
2022/05/24 05:28:05;;;;;;;20.30;10.10;;;;;;;;;;5011730;28;20101;-79
2022/05/24 05:33:18;;;;;;;;;;;;;;;;;;5014184;28;20078;-80
2022/05/24 05:35:46;;;;;;;14.77;10.15;;;;;;;;;;5011758;28;20420;-79
2022/05/24 05:38:14;;;;;;;16.98;10.50;;;;;;;;;;5012361;28;20089;-79
2022/05/24 05:40:42;;;;;;;15.00;10.43;;;;;;;;;;5012312;28;20140;-80
2022/05/24 05:43:09;;;;;;;15.13;10.70;;;;;;;;;;4996005;28;20804;-80
2022/05/24 05:45:37;;;;;;;20.48;11.05;;;;;;;;;;4995611;28;20053;-79
2022/05/24 05:48:04;;;;;;;31.48;12.07;;;;;;;;;;4998593;28;20042;-80
2022/05/24 05:50:32;;;;;;;17.70;11.45;;;;;;;;;;5012764;28;20179;-80
2022/05/24 05:53:03;;;;;;;19.63;13.05;;;;;;;;;;5012607;28;20077;-80
2022/05/24 05:55:31;;;;;;;22.80;11.80;;;;;;;;;;4995257;28;20116;-79
2022/05/24 05:57:59;;;;;;;15.82;11.93;;;;;;;;;;5012519;28;20099;-80
2022/05/24 06:00:26;;;;;;;24.60;13.32;;;;;;;;;;4995329;28;20086;-79
2022/05/24 06:02:54;;;;;;;18.38;13.07;;;;;;;;;;5011569;28;20074;-80
2022/05/24 06:05:27;;;;;;;20.35;12.32;;;;;;;;;;5012740;28;20129;-79
2022/05/24 06:07:58;;;;;;;21.40;12.93;;;;;;;;;;5012341;28;20089;-80
2022/05/24 06:10:27;;;;;;;26.38;14.15;;;;;;;;;;5011546;28;20092;-79
2022/05/24 06:12:55;;;;;;;31.83;14.95;;;;;;;;;;4994069;28;20058;-79
2022/05/24 06:15:25;;;;;;;26.98;15.15;;;;;;;;;;5012239;28;20111;-79
2022/05/24 06:17:53;;;;;;;25.92;14.63;;;;;;;;;;4995315;28;20076;-80
2022/05/24 06:20:22;;;;;;;28.63;14.90;;;;;;;;;;5011993;28;20411;-79
2022/05/24 06:22:53;;;;;;;30.20;15.80;;;;;;;;;;5011089;28;20112;-79
2022/05/24 06:25:22;;;;;;;27.58;15.45;;;;;;;;;;5010233;28;20620;-79
2022/05/24 06:27:52;;;;;;;30.45;16.10;;;;;;;;;;5011323;28;20145;-79
2022/05/24 06:30:20;;;;;;;35.63;15.73;;;;;;;;;;5011632;28;20560;-80
2022/05/24 06:32:48;;;;;;;29.30;16.13;;;;;;;;;;5011511;28;20137;-79
2022/05/24 06:35:15;;;;;;;33.78;17.25;;;;;;;;;;4994777;28;20156;-79
2022/05/24 06:37:43;;;;;;;28.83;15.07;;;;;;;;;;5011747;28;20093;-79
2022/05/24 06:40:15;;;;;;;27.45;15.80;;;;;;;;;;5009776;28;20053;-79
2022/05/24 06:42:42;;;;;;;31.50;16.27;;;;;;;;;;5010548;28;20046;-78
2022/05/24 06:45:09;;;;;;;28.63;16.08;;;;;;;;;;5011166;28;20061;-79
2022/05/24 06:47:37;;;;;;;27.13;14.77;;;;;;;;;;5009327;28;20104;-79
2022/05/24 06:50:05;;;;;;;27.10;14.20;;;;;;;;;;5010046;28;20080;-79
2022/05/24 06:52:32;;;;;;;22.90;12.70;;;;;;;;;;5010370;28;20140;-78
2022/05/24 06:55:00;;;;;;;21.77;10.93;;;;;;;;;;5008111;28;20137;-79
2022/05/24 06:57:27;;;;;;;22.05;12.27;;;;;;;;;;5008811;28;20073;-78
2022/05/24 07:02:40;;;;;;;21.23;10.57;;;;;;;;;;5010493;28;20050;-79
2022/05/24 07:05:16;;;;;;;17.75;10.75;;;;;;;;;;5011026;28;20069;-79
2022/05/24 07:07:43;;;;;;;18.02;9.25;;;;;;;;;;5011019;28;20053;-79
2022/05/24 07:10:12;;;;;;;15.30;9.43;;;;;;;;;;4992881;28;20050;-78
2022/05/24 07:12:39;;;;;;;18.35;10.15;;;;;;;;;;5009740;28;20092;-79
2022/05/24 07:15:07;;;;;;;19.70;10.43;;;;;;;;;;5007491;28;20133;-80
2022/05/24 07:17:34;;;;;;;14.20;9.25;;;;;;;;;;5009114;28;20045;-79
2022/05/24 07:20:02;;;;;;;16.00;9.40;;;;;;;;;;5008634;28;20124;-79
2022/05/24 07:22:29;;;;;;;15.52;10.45;;;;;;;;;;5008582;28;20237;-79
2022/05/24 07:24:56;;;;;;;15.98;10.75;;;;;;;;;;5008556;28;20085;-79
2022/05/24 07:27:23;;;;;;;17.70;10.63;;;;;;;;;;4991991;28;20050;-78
2022/05/24 07:29:51;;;;;;;17.90;9.40;;;;;;;;;;5008520;28;20728;-79
2022/05/24 07:32:18;;;;;;;14.93;9.75;;;;;;;;;;5008943;28;20145;-78
2022/05/24 07:34:45;;;;;;;13.30;9.40;;;;;;;;;;5009206;28;20050;-79
2022/05/24 07:37:15;;;;;;;13.85;10.10;;;;;;;;;;5008348;28;20058;-78
2022/05/24 07:39:42;;;;;;;14.05;9.25;;;;;;;;;;5009209;28;20077;-79
2022/05/24 07:47:43;;;;;;;12.57;8.35;;;;;;;;;;5009901;28;20128;-79
2022/05/24 07:50:11;;;;;;;10.60;7.97;;;;;;;;;;5003245;28;20042;-80
2022/05/24 07:52:38;;;;;;;11.23;7.38;;;;;;;;;;5010212;28;20085;-79
2022/05/24 07:55:05;;;;;;;10.27;7.25;;;;;;;;;;5009828;28;20046;-79
2022/05/24 07:57:33;;;;;;;13.50;7.20;;;;;;;;;;5009949;28;20077;-80
2022/05/24 08:00:05;;;;;;;12.80;6.13;;;;;;;;;;4993339;28;20049;-80
2022/05/24 08:02:32;;;;;;;11.95;7.05;;;;;;;;;;5009524;28;20088;-79
2022/05/24 08:04:59;;;;;;;13.57;6.55;;;;;;;;;;5004325;28;20085;-79
2022/05/24 08:07:26;;;;;;;8.35;6.05;;;;;;;;;;5008564;28;20637;-79
2022/05/24 08:09:53;;;;;;;11.75;6.00;;;;;;;;;;5009358;28;20556;-79
2022/05/24 08:12:20;;;;;;;11.60;6.80;;;;;;;;;;5008849;28;20085;-78
2022/05/24 08:14:48;;;;;;;11.35;6.03;;;;;;;;;;5009136;28;20129;-79
2022/05/24 08:17:16;;;;;;;7.88;5.13;;;;;;;;;;5008686;28;20390;-79
2022/05/24 08:19:43;;;;;;;8.32;5.20;;;;;;;;;;5009103;28;20581;-79
2022/05/24 08:22:10;;;;;;;7.90;5.70;;;;;;;;;;5008923;28;20123;-80
2022/05/24 08:24:37;;;;;;;9.73;5.00;;;;;;;;;;5009901;28;20077;-79
2022/05/24 08:27:06;;;;;;;15.18;6.03;;;;;;;;;;5008066;28;20522;-79
2022/05/24 08:29:35;;;;;;;13.73;4.82;;;;;;;;;;4991146;28;20673;-79
2022/05/24 08:32:02;;;;;;;10.43;5.50;;;;;;;;;;5008213;28;20446;-79
2022/05/24 08:34:31;;;;;;;12.55;4.85;;;;;;;;;;4972409;28;20054;-80
2022/05/24 08:36:58;;;;;;;9.57;4.70;;;;;;;;;;4995410;28;20112;-80
2022/05/24 08:39:26;;;;;;;7.93;4.70;;;;;;;;;;5010142;28;20093;-80
2022/05/24 08:41:59;;;;;;;8.65;4.75;;;;;;;;;;4991210;28;20120;-81
2022/05/24 08:50:30;;;;;;;9.20;4.00;;;;;;;;;;5010346;28;20053;-80
2022/05/24 08:52:59;;;;;;;5.47;3.75;;;;;;;;;;5008863;28;20141;-79
2022/05/24 08:55:27;;;;;;;11.85;4.47;;;;;;;;;;5003620;28;20054;-80
2022/05/24 08:57:57;;;;;;;7.72;3.80;;;;;;;;;;5006975;28;20092;-79
2022/05/24 09:00:39;;;;;;;7.72;4.53;;;;;;;;;;4991164;28;20092;-79
2022/05/24 09:03:07;;;;;;;7.38;4.60;;;;;;;;;;4994952;28;20657;-79
2022/05/24 09:05:38;;;;;;;9.98;4.25;;;;;;;;;;5007002;28;20076;-79
2022/05/24 09:08:24;;;;;;;5.50;3.80;;;;;;;;;;5005907;28;20072;-80
2022/05/24 09:10:56;;;;;;;7.93;4.05;;;;;;;;;;5007759;28;20173;-79
2022/05/24 09:13:35;;;;;;;8.20;4.32;;;;;;;;;;5007624;28;20045;-79
2022/05/24 09:16:06;;;;;;;12.18;4.50;;;;;;;;;;4991240;28;20610;-78
2022/05/24 09:18:37;;;;;;;10.13;4.32;;;;;;;;;;4990462;28;20409;-79
2022/05/24 09:21:05;;;;;;;9.30;4.75;;;;;;;;;;4989775;28;20073;-79
2022/05/24 09:23:51;;;;;;;11.27;4.70;;;;;;;;;;4997007;28;20100;-79
2022/05/24 09:26:24;;;;;;;9.38;5.07;;;;;;;;;;5007589;28;20112;-79
2022/05/24 09:28:53;;;;;;;9.35;4.55;;;;;;;;;;4994413;28;20095;-78
2022/05/24 09:31:47;;;;;;;8.73;4.88;;;;;;;;;;5005956;28;20053;-79
2022/05/24 09:34:17;;;;;;;7.60;4.50;;;;;;;;;;5005405;28;20060;-79
2022/05/24 09:37:01;;;;;;;10.10;4.07;;;;;;;;;;5007446;28;20050;-79
2022/05/24 09:39:38;;;;;;;6.68;4.35;;;;;;;;;;4989899;28;20141;-79
2022/05/24 09:42:14;;;;;;;6.78;3.47;;;;;;;;;;4990089;28;20137;-79
2022/05/24 09:45:04;;;;;;;4.57;3.22;;;;;;;;;;4970786;28;20086;-80
2022/05/24 09:47:33;;;;;;;6.20;3.30;;;;;;;;;;4991951;28;20125;-80
2022/05/24 09:50:16;;;;;;;7.97;3.00;;;;;;;;;;4987111;28;20054;-79
2022/05/24 09:52:46;;;;;;;3.83;2.90;;;;;;;;;;4998086;28;20722;-80
2022/05/24 09:55:22;;;;;;;8.63;2.88;;;;;;;;;;5006333;28;20049;-80
2022/05/24 09:57:49;;;;;;;6.32;2.72;;;;;;;;;;5006113;28;20137;-79
2022/05/24 10:00:20;;;;;;;6.15;2.33;;;;;;;;;;5005925;28;20089;-79
2022/05/24 10:02:48;;;;;;;5.60;2.53;;;;;;;;;;4995007;28;20761;-79
2022/05/24 10:05:25;;;;;;;4.38;2.90;;;;;;;;;;5006362;28;20050;-79
2022/05/24 10:08:00;;;;;;;3.85;2.75;;;;;;;;;;5006646;28;20073;-79
2022/05/24 10:10:33;;;;;;;3.45;2.58;;;;;;;;;;5006599;28;20121;-79
2022/05/24 10:13:13;;;;;;;6.10;2.60;;;;;;;;;;5005424;28;20085;-79
2022/05/24 10:15:49;;;;;;;2.83;2.25;;;;;;;;;;5009438;28;20081;-80
2022/05/24 10:18:35;;;;;;;8.30;2.47;;;;;;;;;;5009471;28;20137;-80
2022/05/24 10:21:05;;;;;;;7.90;2.10;;;;;;;;;;4992680;28;20137;-79
2022/05/24 10:23:44;;;;;;;3.28;2.40;;;;;;;;;;4994428;28;20488;-79
2022/05/24 10:26:26;;;;;;;3.25;2.30;;;;;;;;;;5010616;28;20125;-79
2022/05/24 10:28:59;;;;;;;5.20;2.55;;;;;;;;;;4997658;28;20077;-79
2022/05/24 10:31:41;;;;;;;5.57;2.40;;;;;;;;;;5008273;28;20089;-79
2022/05/24 10:40:20;;;;;;;4.53;2.70;;;;;;;;;;5009593;28;20529;-79
2022/05/24 10:42:53;;;;;;;3.28;2.17;;;;;;;;;;4998820;28;20172;-79
2022/05/24 10:45:23;;;;;;;4.82;2.22;;;;;;;;;;5007720;28;20137;-79
2022/05/24 10:47:51;;;;;;;8.07;2.63;;;;;;;;;;5007326;28;20836;-80
2022/05/24 10:50:31;;;;;;;5.72;2.88;;;;;;;;;;4991222;28;20089;-79
2022/05/24 10:53:08;;;;;;;7.60;2.10;;;;;;;;;;4998465;28;20517;-80
2022/05/24 10:55:40;;;;;;;2.97;2.60;;;;;;;;;;5008433;28;20108;-79
2022/05/24 10:58:11;;;;;;;3.45;2.47;;;;;;;;;;5008551;28;20139;-79
2022/05/24 11:00:41;;;;;;;3.13;2.20;;;;;;;;;;5007890;28;20054;-79
2022/05/24 11:03:08;;;;;;;6.32;2.50;;;;;;;;;;5007392;28;20090;-79
2022/05/24 11:05:42;;;;;;;6.18;2.30;;;;;;;;;;5007330;28;20100;-79
2022/05/24 11:08:27;;;;;;;4.60;2.70;;;;;;;;;;5007533;28;20149;-81
2022/05/24 11:10:54;;;;;;;;;;;;;;;;;;4990494;28;20137;-79
2022/05/24 11:13:27;;;;;;;6.10;2.85;;;;;;;;;;5006440;28;19972;-79
2022/05/24 11:15:57;;;;;;;4.97;2.75;;;;;;;;;;5007988;28;20085;-79
2022/05/24 11:18:39;;;;;;;5.07;2.72;;;;;;;;;;5007462;28;20071;-79
2022/05/24 11:21:06;;;;;;;7.90;3.30;;;;;;;;;;5007144;28;20085;-78
2022/05/24 11:23:42;;;;;;;4.97;3.38;;;;;;;;;;5006678;28;20061;-79
2022/05/24 11:26:11;;;;;;;3.53;2.55;;;;;;;;;;5006593;28;20752;-78
2022/05/24 11:28:50;;;;;;;4.20;2.90;;;;;;;;;;5007027;28;20046;-79
2022/05/24 11:31:23;;;;;;;4.35;2.83;;;;;;;;;;4989490;28;20554;-78
2022/05/24 11:33:52;;;;;;;4.88;3.28;;;;;;;;;;5003863;28;20052;-79
2022/05/24 11:36:27;;;;;;;7.70;3.10;;;;;;;;;;5006472;28;20128;-78
2022/05/24 11:39:05;;;;;;;15.43;3.08;;;;;;;;;;4990326;28;20133;-79
2022/05/24 11:41:33;;;;;;;6.43;2.95;;;;;;;;;;5007500;28;20663;-79
2022/05/24 11:44:02;;;;;;;10.85;3.50;;;;;;;;;;5007704;28;20149;-78
2022/05/24 11:46:38;;;;;;;5.53;3.38;;;;;;;;;;5007490;28;20041;-78
2022/05/24 11:49:10;;;;;;;4.93;3.03;;;;;;;;;;4989930;28;20057;-79
2022/05/24 11:51:37;;;;;;;6.45;3.50;;;;;;;;;;4989364;28;20410;-79
2022/05/24 11:54:07;;;;;;;10.18;3.58;;;;;;;;;;5004088;28;20579;-79
2022/05/24 11:56:35;;;;;;;6.45;2.50;;;;;;;;;;5005244;28;20053;-79
2022/05/24 11:59:04;;;;;;;12.82;5.65;;;;;;;;;;4989507;28;20055;-80
2022/05/24 12:01:44;;;;;;;4.10;2.73;;;;;;;;;;5006562;28;20819;-79
2022/05/24 12:10:25;;;;;;;4.30;2.40;;;;;;;;;;5006274;28;20077;-79
2022/05/24 12:12:55;;;;;;;3.15;2.10;;;;;;;;;;5005443;28;20054;-79
2022/05/24 12:15:24;;;;;;;6.03;2.22;;;;;;;;;;5006453;28;20152;-79
2022/05/24 12:17:53;;;;;;;5.13;2.15;;;;;;;;;;4988998;28;20156;-79
2022/05/24 12:20:29;;;;;;;3.08;2.00;;;;;;;;;;5006035;28;20042;-79
2022/05/24 12:23:05;;;;;;;4.82;2.30;;;;;;;;;;5006292;28;20157;-79
2022/05/24 12:26:04;;;;;;;13.98;2.70;;;;;;;;;;5006470;28;20054;-79
2022/05/24 12:28:37;;;;;;;3.60;2.63;;;;;;;;;;5002884;28;20100;-79
2022/05/24 12:31:13;;;;;;;2.53;2.22;;;;;;;;;;5006308;28;20768;-78
2022/05/24 12:33:51;;;;;;;9.32;3.15;;;;;;;;;;5006105;28;20601;-79
2022/05/24 12:36:30;;;;;;;4.75;2.25;;;;;;;;;;5006446;28;20092;-79
2022/05/24 12:39:18;;;;;;;3.90;2.10;;;;;;;;;;5006591;28;20144;-79
2022/05/24 12:41:50;;;;;;;5.15;2.58;;;;;;;;;;5006026;28;20078;-78
2022/05/24 12:44:41;;;;;;;10.15;2.53;;;;;;;;;;4987868;28;20043;-79
2022/05/24 12:47:09;;;;;;;5.43;2.60;;;;;;;;;;4993565;28;20038;-79
2022/05/24 12:49:38;;;;;;;7.85;2.97;;;;;;;;;;4990214;28;20505;-79
2022/05/24 12:52:22;;;;;;;5.47;2.95;;;;;;;;;;5006367;28;20133;-79
2022/05/24 12:54:51;;;;;;;4.80;2.97;;;;;;;;;;4990252;28;20085;-79
2022/05/24 12:57:20;;;;;;;7.05;4.00;;;;;;;;;;4989956;28;20077;-79
2022/05/24 12:59:58;;;;;;;6.35;3.70;;;;;;;;;;4990101;28;20139;-80
2022/05/24 13:02:44;;;;;;;7.93;4.35;;;;;;;;;;5006787;28;20129;-79
2022/05/24 13:05:11;;;;;;;13.20;4.35;;;;;;;;;;4989923;28;20564;-79
2022/05/24 13:07:46;;;;;;;8.95;3.72;;;;;;;;;;5007110;28;20128;-79
2022/05/24 13:10:23;;;;;;;6.00;4.40;;;;;;;;;;5006963;28;20073;-80
2022/05/24 13:13:05;;;;;;;7.03;5.18;;;;;;;;;;4994565;28;20054;-79
2022/05/24 13:15:43;;;;;;;10.55;6.88;;;;;;;;;;5007264;28;20081;-78
2022/05/24 13:18:15;;;;;;;9.85;6.88;;;;;;;;;;4991401;28;20069;-80
2022/05/24 13:20:47;;;;;;;9.95;7.60;;;;;;;;;;5004234;28;20140;-79
2022/05/24 13:23:15;;;;;;;15.82;8.48;;;;;;;;;;4992634;28;20450;-78
2022/05/24 13:25:45;;;;;;;20.20;8.80;;;;;;;;;;4997790;28;20093;-78
2022/05/24 13:28:12;;;;;;;15.85;7.25;;;;;;;;;;5007288;28;20552;-79
2022/05/24 13:33:41;;;;;;;14.05;9.27;;;;;;;;;;5004996;28;20049;-78
2022/05/24 13:36:11;;;;;;;15.32;9.38;;;;;;;;;;5004098;28;20092;-78
2022/05/24 13:38:43;;;;;;;15.63;10.07;;;;;;;;;;5005851;28;20100;-78
2022/05/24 13:41:11;;;;;;;21.13;11.32;;;;;;;;;;5005774;28;20179;-79
2022/05/24 13:43:38;;;;;;;16.55;10.85;;;;;;;;;;5008276;28;20121;-79
2022/05/24 13:46:25;;;;;;;24.92;11.68;;;;;;;;;;5008337;28;20088;-79
2022/05/24 13:48:57;;;;;;;21.77;10.82;;;;;;;;;;5010386;28;20057;-79
2022/05/24 13:51:27;;;;;;;19.73;11.25;;;;;;;;;;4994541;28;20085;-79
2022/05/24 13:53:55;;;;;;;23.58;11.70;;;;;;;;;;5010200;28;20092;-79
2022/05/24 13:56:25;;;;;;;18.60;10.90;;;;;;;;;;5011794;28;20486;-79
2022/05/24 13:59:06;;;;;;;20.30;11.45;;;;;;;;;;4993985;28;20805;-79
2022/05/24 14:01:37;;;;;;;16.20;10.23;;;;;;;;;;5010940;28;20054;-79
2022/05/24 14:04:12;;;;;;;20.63;11.40;;;;;;;;;;5010913;28;20046;-79
2022/05/24 14:06:40;;;;;;;19.15;10.30;;;;;;;;;;5010963;28;20058;-80
2022/05/24 14:09:08;;;;;;;16.13;10.48;;;;;;;;;;5011576;28;20050;-79
2022/05/24 14:11:35;;;;;;;19.60;11.20;;;;;;;;;;4993710;28;20101;-79
2022/05/24 14:14:02;;;;;;;19.45;11.10;;;;;;;;;;4994396;28;20461;-80
2022/05/24 14:16:30;;;;;;;19.67;12.65;;;;;;;;;;5011674;28;20671;-79
2022/05/24 14:18:58;;;;;;;18.98;11.88;;;;;;;;;;5011098;28;20057;-80
2022/05/24 14:21:27;;;;;;;23.23;13.15;;;;;;;;;;5010935;28;20054;-80
2022/05/24 14:23:55;;;;;;;17.10;10.43;;;;;;;;;;5011740;28;20141;-80
2022/05/24 14:26:23;;;;;;;13.85;9.63;;;;;;;;;;5011740;28;20533;-80
2022/05/24 14:28:52;;;;;;;14.55;9.60;;;;;;;;;;5011047;28;20111;-80
2022/05/24 14:31:21;;;;;;;13.20;9.07;;;;;;;;;;4994048;28;20054;-80
2022/05/24 14:33:49;;;;;;;12.73;7.80;;;;;;;;;;5012087;28;20140;-80
2022/05/24 14:36:16;;;;;;;8.68;6.25;;;;;;;;;;5011742;28;20081;-80
2022/05/24 14:38:45;;;;;;;9.68;7.28;;;;;;;;;;5011539;28;20503;-80
2022/05/24 14:41:22;;;;;;;9.88;5.63;;;;;;;;;;5011593;28;20045;-81
2022/05/24 14:43:51;;;;;;;8.93;4.93;;;;;;;;;;4992021;28;20057;-81
2022/05/24 14:46:19;;;;;;;7.45;4.75;;;;;;;;;;5003416;28;20413;-81
2022/05/24 14:48:47;;;;;;;6.32;4.43;;;;;;;;;;4994711;28;20050;-81
2022/05/24 14:51:14;;;;;;;5.57;3.90;;;;;;;;;;5011453;28;20096;-80
2022/05/24 14:53:42;;;;;;;6.35;3.45;;;;;;;;;;5008426;28;20093;-80
2022/05/24 14:56:30;;;;;;;8.07;3.88;;;;;;;;;;5011001;28;20060;-80
2022/05/24 14:59:00;;;;;;;4.35;3.05;;;;;;;;;;4993861;28;20150;-81
2022/05/24 15:01:27;;;;;;;4.13;2.80;;;;;;;;;;4993392;28;20542;-81
2022/05/24 15:03:55;;;;;;;4.38;2.60;;;;;;;;;;5010790;28;20050;-81
2022/05/24 15:06:23;;;;;;;3.95;2.72;;;;;;;;;;5010171;28;20140;-80
2022/05/24 15:15:20;;;;;;;6.45;2.92;;;;;;;;;;5008976;28;21959;-80
2022/05/24 15:17:33;;;;;;;4.28;2.20;;;;;;;;;;5011156;28;20112;-81
2022/05/24 15:20:21;;;;;;;2.72;2.10;;;;;;;;;;5012518;28;20061;-81
2022/05/24 15:22:50;;;;;;;4.18;1.90;;;;;;;;;;5011717;28;20081;-80
2022/05/24 15:25:24;;;;;;;3.90;1.88;;;;;;;;;;4996314;28;20767;-79
2022/05/24 15:27:52;;;;;;;4.10;1.88;;;;;;;;;;5009307;28;20085;-80
2022/05/24 15:30:20;;;;;;;2.70;2.25;;;;;;;;;;5009249;28;20073;-79
2022/05/24 15:32:48;;;;;;;5.55;2.20;;;;;;;;;;4992753;28;20103;-79
2022/05/24 15:35:16;;;;;;;4.93;2.60;;;;;;;;;;5010175;28;20046;-79
2022/05/24 15:37:43;;;;;;;4.10;2.60;;;;;;;;;;5009702;28;20081;-78
2022/05/24 15:40:10;;;;;;;5.80;3.15;;;;;;;;;;4991712;28;20092;-80
2022/05/24 15:42:38;;;;;;;2.95;2.45;;;;;;;;;;4991121;28;20053;-79
2022/05/24 15:45:05;;;;;;;2.80;2.50;;;;;;;;;;4991194;28;20054;-78
2022/05/24 15:47:33;;;;;;;3.08;2.10;;;;;;;;;;5007334;28;20074;-77